Time;durP1;ratioP1;P1;durP2;ratioP2;P2;SDS_P1;SDS_P2;PMS_P1;PMS_P2;Temp;Humidity;BMP_temperature;BMP_pressure;BME280_temperature;BME280_humidity;BME280_pressure;Samples;Min_cycle;Max_cycle;Signal;HPM_P1;HPM_P2
2022/03/09 00:01:40;;;;;;;60.70;40.08;;;0.20;99.90;;;;;;4972971;28;20031;-73
2022/03/09 00:04:06;;;;;;;61.50;39.88;;;0.30;99.90;;;;;;4973041;28;20019;-71
2022/03/09 00:06:32;;;;;;;60.67;41.08;;;0.10;99.90;;;;;;4972941;28;20070;-75
2022/03/09 00:08:58;;;;;;;57.05;40.17;;;0.10;99.90;;;;;;4972939;28;20030;-70
2022/03/09 00:11:24;;;;;;;59.05;39.33;;;0.10;99.90;;;;;;4972634;28;20442;-75
2022/03/09 00:13:50;;;;;;;57.42;38.78;;;0.20;99.90;;;;;;4972848;28;20050;-74
2022/03/09 00:16:17;;;;;;;61.08;39.88;;;0.20;99.90;;;;;;4973009;28;20050;-73
2022/03/09 00:18:43;;;;;;;56.25;37.85;;;0.20;99.90;;;;;;4972742;28;20027;-73
2022/03/09 00:21:09;;;;;;;58.50;39.60;;;0.10;99.90;;;;;;4973109;28;20433;-73
2022/03/09 00:23:35;;;;;;;54.85;37.10;;;0.10;99.90;;;;;;4972763;28;20027;-74
2022/03/09 00:26:01;;;;;;;62.38;38.67;;;0.20;99.90;;;;;;4972624;28;20110;-73
2022/03/09 00:28:26;;;;;;;61.70;38.05;;;0.20;99.90;;;;;;4976314;28;20526;-74
2022/03/09 00:30:53;;;;;;;54.97;38.40;;;0.20;99.90;;;;;;4976686;28;20039;-75
2022/03/09 00:33:19;;;;;;;56.22;36.83;;;0.00;99.90;;;;;;4975495;28;20023;-76
2022/03/09 00:35:45;;;;;;;54.60;36.20;;;0.00;99.90;;;;;;4975661;28;20043;-75
2022/03/09 00:38:11;;;;;;;51.80;35.53;;;0.00;99.90;;;;;;4976653;28;20030;-73
2022/03/09 00:40:38;;;;;;;49.95;35.97;;;0.00;99.90;;;;;;4976922;28;20041;-75
2022/03/09 00:43:03;;;;;;;50.92;36.20;;;0.00;99.90;;;;;;4976545;28;20109;-76
2022/03/09 00:45:29;;;;;;;51.78;36.08;;;0.00;99.90;;;;;;4976808;28;20557;-75
2022/03/09 00:47:55;;;;;;;56.00;36.65;;;0.00;99.90;;;;;;4976742;28;20019;-76
2022/03/09 00:50:21;;;;;;;53.83;36.90;;;0.00;99.90;;;;;;4976531;28;20039;-76
2022/03/09 00:52:47;;;;;;;52.65;36.50;;;0.10;99.90;;;;;;4976799;28;20119;-76
2022/03/09 00:55:14;;;;;;;51.13;37.63;;;0.10;99.90;;;;;;4976402;28;20192;-75
2022/03/09 00:57:40;;;;;;;55.72;35.88;;;0.10;99.90;;;;;;4976355;28;20015;-76
2022/03/09 01:00:07;;;;;;;54.80;35.55;;;0.10;99.90;;;;;;4974471;28;20035;-76
2022/03/09 01:02:40;;;;;;;56.10;39.85;;;0.20;99.90;;;;;;4991455;28;20179;-76
2022/03/09 01:05:07;;;;;;;58.88;37.80;;;0.20;99.90;;;;;;4976227;28;20030;-76
2022/03/09 01:07:33;;;;;;;59.92;38.38;;;0.30;99.90;;;;;;4976297;28;20035;-75
2022/03/09 01:09:59;;;;;;;57.13;38.70;;;0.40;99.90;;;;;;4975119;28;20045;-74
2022/03/09 01:12:25;;;;;;;51.25;36.03;;;0.40;99.90;;;;;;4990955;28;20019;-74
2022/03/09 01:14:52;;;;;;;50.53;34.42;;;0.40;99.90;;;;;;4990920;28;20039;-75
2022/03/09 01:17:18;;;;;;;46.92;33.05;;;0.30;99.90;;;;;;4974427;28;20042;-75
2022/03/09 01:19:47;;;;;;;46.33;32.70;;;0.20;99.90;;;;;;4975755;28;20524;-77
2022/03/09 01:22:13;;;;;;;45.22;32.28;;;0.30;99.90;;;;;;4975942;28;20031;-77
2022/03/09 01:24:39;;;;;;;49.92;34.20;;;0.20;99.90;;;;;;4976031;28;20461;-77
2022/03/09 01:27:05;;;;;;;52.40;32.25;;;0.30;99.90;;;;;;4975877;28;20469;-77
2022/03/09 01:29:31;;;;;;;49.80;33.10;;;0.30;99.90;;;;;;4975682;28;20404;-77
2022/03/09 01:31:56;;;;;;;48.97;32.13;;;0.30;99.90;;;;;;4975942;28;20041;-76
2022/03/09 01:34:22;;;;;;;45.72;30.90;;;0.30;99.90;;;;;;4975616;28;20421;-76
2022/03/09 01:36:49;;;;;;;48.55;31.00;;;0.30;99.90;;;;;;4975612;28;20093;-74
2022/03/09 01:39:15;;;;;;;46.30;31.98;;;0.30;99.90;;;;;;4974234;28;20027;-76
2022/03/09 01:41:41;;;;;;;47.55;29.38;;;0.40;99.90;;;;;;4975698;28;20027;-75
2022/03/09 01:44:16;;;;;;;53.58;33.95;;;0.30;99.90;;;;;;4975456;28;20030;-75
2022/03/09 01:46:43;;;;;;;43.13;29.83;;;0.30;99.90;;;;;;4975642;28;20390;-74
2022/03/09 01:49:10;;;;;;;43.15;28.75;;;0.30;99.90;;;;;;4975661;28;20031;-74
2022/03/09 01:51:41;;;;;;;48.40;29.98;;;0.30;99.90;;;;;;4975683;28;20370;-74
2022/03/09 01:54:10;;;;;;;44.80;30.10;;;0.30;99.90;;;;;;4990261;28;20523;-74
2022/03/09 01:56:37;;;;;;;49.67;31.73;;;0.30;99.90;;;;;;4975100;28;20043;-74
2022/03/09 01:59:05;;;;;;;40.38;29.10;;;0.30;99.90;;;;;;4990223;28;20037;-75
2022/03/09 02:01:31;;;;;;;45.78;29.35;;;0.40;99.90;;;;;;4975349;28;20062;-74
2022/03/09 02:03:58;;;;;;;45.08;29.35;;;0.40;99.90;;;;;;4975066;28;20019;-74
2022/03/09 02:06:25;;;;;;;41.95;27.98;;;0.50;99.90;;;;;;4973914;28;20448;-73
2022/03/09 02:11:38;;;;;;;41.45;27.40;;;0.50;99.90;;;;;;4975901;28;20068;-75
2022/03/09 02:14:05;;;;;;;42.85;28.30;;;0.50;99.90;;;;;;4974900;28;20023;-75
2022/03/09 02:16:32;;;;;;;43.35;28.20;;;0.50;99.90;;;;;;4975197;28;20043;-76
2022/03/09 02:19:01;;;;;;;42.58;28.30;;;0.50;99.90;;;;;;4974945;28;20026;-75
2022/03/09 02:21:29;;;;;;;47.58;28.52;;;0.60;99.90;;;;;;4974899;28;20035;-75
2022/03/09 02:23:55;;;;;;;39.13;26.23;;;0.50;99.90;;;;;;4974783;28;20029;-75
2022/03/09 02:26:21;;;;;;;40.67;28.08;;;0.60;99.90;;;;;;4974785;28;20081;-76
2022/03/09 02:28:48;;;;;;;40.88;25.48;;;0.60;99.90;;;;;;4974783;28;20089;-75
2022/03/09 02:31:14;;;;;;;37.05;24.65;;;0.50;99.90;;;;;;4974646;28;20444;-76
2022/03/09 02:33:45;;;;;;;40.85;27.80;;;0.40;99.90;;;;;;4974580;28;20023;-74
2022/03/09 02:36:11;;;;;;;44.17;26.40;;;0.40;99.90;;;;;;4974565;28;20039;-76
2022/03/09 02:38:37;;;;;;;42.13;27.45;;;0.40;99.90;;;;;;4973488;28;20034;-76
2022/03/09 02:41:03;;;;;;;46.33;28.42;;;0.30;99.90;;;;;;4974606;28;20027;-76
2022/03/09 02:43:29;;;;;;;42.00;27.17;;;0.30;99.90;;;;;;4974559;28;20497;-74
2022/03/09 02:45:54;;;;;;;41.80;27.35;;;0.20;99.90;;;;;;4974339;28;20047;-74
2022/03/09 02:48:20;;;;;;;43.67;29.00;;;0.20;99.90;;;;;;4974640;28;20035;-72
2022/03/09 02:50:46;;;;;;;44.35;28.92;;;0.20;99.90;;;;;;4962454;28;20089;-74
2022/03/09 02:53:12;;;;;;;43.83;27.92;;;0.20;99.90;;;;;;4954928;28;20389;-74
2022/03/09 02:55:39;;;;;;;46.55;28.70;;;0.20;99.90;;;;;;4959136;28;20031;-73
2022/03/09 02:58:05;;;;;;;43.95;28.10;;;0.30;99.90;;;;;;4954204;28;20023;-72
2022/03/09 03:00:31;;;;;;;46.45;28.35;;;0.30;99.90;;;;;;4954853;28;20035;-75
2022/03/09 03:02:57;;;;;;;38.95;26.05;;;0.20;99.90;;;;;;4960342;28;20031;-75
2022/03/09 03:05:23;;;;;;;47.47;27.02;;;0.20;99.90;;;;;;4971319;28;20043;-76
2022/03/09 03:07:49;;;;;;;37.50;25.80;;;0.10;99.90;;;;;;4969344;28;20078;-74
2022/03/09 03:10:15;;;;;;;39.80;27.23;;;0.20;99.90;;;;;;4954650;28;20031;-75
2022/03/09 03:12:41;;;;;;;37.47;24.83;;;0.20;99.90;;;;;;4954391;28;20030;-75
2022/03/09 03:15:07;;;;;;;41.78;24.48;;;0.10;99.90;;;;;;4958992;28;20070;-73
2022/03/09 03:17:37;;;;;;;37.53;23.15;;;0.20;99.90;;;;;;4973688;28;20022;-74
2022/03/09 03:20:04;;;;;;;43.30;25.55;;;0.10;99.90;;;;;;4973887;28;20038;-74
2022/03/09 03:22:31;;;;;;;39.22;24.30;;;0.10;99.90;;;;;;4973344;28;20090;-73
2022/03/09 03:24:57;;;;;;;34.80;23.50;;;0.10;99.90;;;;;;4973632;28;20059;-73
2022/03/09 03:27:23;;;;;;;38.47;24.05;;;0.00;99.90;;;;;;4973341;28;20426;-74
2022/03/09 03:29:49;;;;;;;45.40;25.65;;;0.10;99.90;;;;;;4973478;28;20031;-74
2022/03/09 03:32:15;;;;;;;36.15;24.25;;;0.00;99.90;;;;;;4973073;28;20023;-73
2022/03/09 03:34:42;;;;;;;38.67;24.25;;;0.00;99.90;;;;;;4973378;28;20034;-74
2022/03/09 03:37:08;;;;;;;37.58;24.85;;;-0.10;99.90;;;;;;4972021;28;20117;-74
2022/03/09 03:39:34;;;;;;;40.25;24.98;;;0.00;99.90;;;;;;4973301;28;20064;-75
2022/03/09 03:42:00;;;;;;;40.70;26.27;;;0.00;99.90;;;;;;4973011;28;20023;-74
2022/03/09 03:44:27;;;;;;;37.13;23.73;;;-0.10;99.90;;;;;;4956309;28;20031;-75
2022/03/09 03:46:52;;;;;;;42.35;26.10;;;0.00;99.90;;;;;;4953705;28;20087;-74
2022/03/09 03:49:19;;;;;;;37.13;23.88;;;0.00;99.90;;;;;;4953697;28;20113;-73
2022/03/09 03:51:45;;;;;;;38.70;24.35;;;0.10;99.90;;;;;;4954084;28;20028;-74
2022/03/09 03:54:10;;;;;;;35.17;23.15;;;0.10;99.90;;;;;;4951930;28;20362;-74
2022/03/09 03:56:36;;;;;;;37.55;23.40;;;0.00;99.90;;;;;;4953569;28;20110;-74
2022/03/09 03:59:02;;;;;;;36.63;24.17;;;-0.10;99.90;;;;;;4953310;28;20110;-76
2022/03/09 04:01:28;;;;;;;36.80;23.13;;;-0.10;99.90;;;;;;4952719;29;20027;-74
2022/03/09 04:03:54;;;;;;;37.45;24.52;;;-0.10;99.90;;;;;;4953477;28;20050;-74
2022/03/09 04:06:20;;;;;;;42.08;28.27;;;-0.10;99.90;;;;;;4953635;28;20041;-75
2022/03/09 04:08:46;;;;;;;41.10;25.27;;;-0.10;99.90;;;;;;4953619;28;20385;-76
2022/03/09 04:11:11;;;;;;;41.30;26.45;;;0.00;99.90;;;;;;4953586;28;20034;-74
2022/03/09 04:13:39;;;;;;;46.55;28.40;;;0.00;99.90;;;;;;4953579;28;20019;-73
2022/03/09 04:16:04;;;;;;;42.25;26.70;;;0.00;99.90;;;;;;4961326;28;20049;-73
2022/03/09 04:18:30;;;;;;;41.72;25.92;;;0.10;99.90;;;;;;4972938;28;20456;-74
2022/03/09 04:20:56;;;;;;;40.60;27.83;;;0.10;99.90;;;;;;4987657;28;20107;-75
2022/03/09 04:23:22;;;;;;;45.65;29.25;;;0.10;99.90;;;;;;4972618;28;20105;-75
2022/03/09 04:25:49;;;;;;;47.10;28.05;;;0.10;99.90;;;;;;4972389;28;20492;-74
2022/03/09 04:28:15;;;;;;;43.38;26.20;;;0.10;99.90;;;;;;4972516;28;20035;-75
2022/03/09 04:30:41;;;;;;;42.42;29.02;;;0.20;99.90;;;;;;4971153;28;20066;-75
2022/03/09 04:33:07;;;;;;;44.17;28.08;;;0.20;99.90;;;;;;4972571;28;20062;-72
2022/03/09 04:35:33;;;;;;;43.83;27.70;;;0.30;99.90;;;;;;4972418;28;20481;-75
2022/03/09 04:38:00;;;;;;;45.20;27.65;;;0.30;99.90;;;;;;4972520;28;20027;-74
2022/03/09 04:40:26;;;;;;;46.97;29.60;;;0.30;99.90;;;;;;4972599;28;20027;-68
2022/03/09 04:42:51;;;;;;;42.90;27.48;;;0.30;99.90;;;;;;4972415;28;20354;-74
2022/03/09 04:45:17;;;;;;;44.20;27.73;;;0.40;99.90;;;;;;4972528;28;20063;-74
2022/03/09 04:47:43;;;;;;;43.85;28.27;;;0.40;99.90;;;;;;4972658;28;20023;-75
2022/03/09 04:50:11;;;;;;;44.08;28.25;;;0.30;99.90;;;;;;4972189;28;20034;-75
2022/03/09 04:52:37;;;;;;;43.47;28.02;;;0.30;99.90;;;;;;4972171;28;20038;-74
2022/03/09 04:55:03;;;;;;;40.30;27.70;;;0.30;99.90;;;;;;4972118;28;20022;-70
2022/03/09 04:57:29;;;;;;;47.58;28.23;;;0.40;99.90;;;;;;4972535;28;20413;-70
2022/03/09 04:59:54;;;;;;;44.65;26.20;;;0.40;99.90;;;;;;4972717;28;20027;-75
2022/03/09 05:02:24;;;;;;;41.55;27.55;;;0.40;99.90;;;;;;4987192;28;20084;-74
2022/03/09 05:04:50;;;;;;;49.30;30.38;;;0.30;99.90;;;;;;4970747;28;20481;-75
2022/03/09 05:07:16;;;;;;;54.85;31.60;;;0.30;99.90;;;;;;4972517;28;20055;-76
2022/03/09 05:09:42;;;;;;;46.88;31.55;;;0.40;99.90;;;;;;4972028;28;20581;-76
2022/03/09 05:12:08;;;;;;;49.88;33.78;;;0.40;99.90;;;;;;4971926;28;20031;-76
2022/03/09 05:14:34;;;;;;;48.17;33.17;;;0.30;99.90;;;;;;4975632;28;20058;-76
2022/03/09 05:17:00;;;;;;;46.67;31.55;;;0.40;99.90;;;;;;4963656;28;20441;-75
2022/03/09 05:19:26;;;;;;;47.08;33.08;;;0.50;99.90;;;;;;4956194;28;20019;-74
2022/03/09 05:21:52;;;;;;;48.67;34.88;;;0.50;99.90;;;;;;4969730;28;20031;-76
2022/03/09 05:24:19;;;;;;;48.33;32.60;;;0.50;99.90;;;;;;4974843;28;20026;-77
2022/03/09 05:26:46;;;;;;;47.10;30.40;;;0.60;99.90;;;;;;4971606;28;20449;-74
2022/03/09 05:29:17;;;;;;;48.58;31.88;;;0.60;99.90;;;;;;4975408;28;20057;-77
2022/03/09 05:31:45;;;;;;;44.28;31.25;;;0.50;99.90;;;;;;4975115;28;20027;-75
2022/03/09 05:34:13;;;;;;;52.30;33.47;;;0.50;99.90;;;;;;4975455;28;20073;-75
2022/03/09 05:36:39;;;;;;;46.85;32.15;;;0.50;99.90;;;;;;4973993;28;20104;-74
2022/03/09 05:39:05;;;;;;;48.88;33.30;;;0.50;99.90;;;;;;4975125;28;20022;-76
2022/03/09 05:41:33;;;;;;;50.15;32.75;;;0.50;99.90;;;;;;4987537;28;20030;-76
2022/03/09 05:44:00;;;;;;;45.17;33.50;;;0.60;99.90;;;;;;4994856;28;20491;-77
2022/03/09 05:46:26;;;;;;;50.50;32.65;;;0.70;99.90;;;;;;4975175;28;20054;-75
2022/03/09 05:48:52;;;;;;;51.15;32.78;;;0.80;99.90;;;;;;4975315;28;20464;-75
2022/03/09 05:51:18;;;;;;;51.63;35.40;;;0.90;99.90;;;;;;4975232;28;20560;-74
2022/03/09 05:53:43;;;;;;;49.72;35.10;;;1.00;99.90;;;;;;4974855;28;20401;-76
2022/03/09 05:56:10;;;;;;;53.65;35.47;;;1.10;99.90;;;;;;4974604;28;20473;-76
2022/03/09 05:58:36;;;;;;;59.70;37.28;;;1.10;99.90;;;;;;4974751;28;20023;-77
2022/03/09 06:01:01;;;;;;;58.50;37.15;;;1.90;99.90;;;;;;4975176;28;20037;-75
2022/03/09 06:03:27;;;;;;;53.58;34.08;;;2.90;99.90;;;;;;4975072;28;20035;-77
2022/03/09 06:05:53;;;;;;;53.22;34.10;;;3.40;99.90;;;;;;4975192;28;20560;-76
2022/03/09 06:08:19;;;;;;;59.35;36.33;;;3.80;99.90;;;;;;4974831;28;20027;-76
2022/03/09 06:10:45;;;;;;;47.22;31.85;;;4.30;99.90;;;;;;4973689;28;20478;-77
2022/03/09 06:13:13;;;;;;;44.67;28.73;;;4.10;99.90;;;;;;4974699;28;20449;-77
2022/03/09 06:15:39;;;;;;;43.63;28.80;;;3.40;99.90;;;;;;4989201;28;20042;-77
2022/03/09 06:18:05;;;;;;;46.72;28.67;;;2.80;99.90;;;;;;4975110;28;20465;-78
2022/03/09 06:20:32;;;;;;;54.47;35.33;;;2.70;99.90;;;;;;4974638;28;20481;-77
2022/03/09 06:22:58;;;;;;;48.03;33.47;;;2.70;99.90;;;;;;4975402;28;20058;-77
2022/03/09 06:25:24;;;;;;;43.15;31.00;;;2.60;99.90;;;;;;4972529;28;20039;-77
2022/03/09 06:27:52;;;;;;;45.83;28.52;;;2.70;99.90;;;;;;4974698;28;20103;-77
2022/03/09 06:30:18;;;;;;;45.63;30.40;;;2.80;99.90;;;;;;4973862;28;20039;-76
2022/03/09 06:32:46;;;;;;;42.15;28.80;;;2.50;99.90;;;;;;4974204;28;20030;-77
2022/03/09 06:35:13;;;;;;;40.13;28.17;;;2.70;99.90;;;;;;4956795;28;20039;-76
2022/03/09 06:37:39;;;;;;;41.38;27.98;;;2.60;99.90;;;;;;4974384;28;20038;-76
2022/03/09 06:40:06;;;;;;;42.40;27.15;;;2.70;99.90;;;;;;4974745;28;20473;-76
2022/03/09 06:42:33;;;;;;;39.83;27.35;;;2.70;99.90;;;;;;4973140;28;20033;-76
2022/03/09 06:44:59;;;;;;;42.15;27.08;;;2.70;99.90;;;;;;4989055;28;20031;-76
2022/03/09 06:47:26;;;;;;;43.45;27.95;;;2.70;99.90;;;;;;4974371;28;20035;-76
2022/03/09 06:49:52;;;;;;;42.78;28.45;;;2.60;99.90;;;;;;4974227;28;20035;-76
2022/03/09 06:52:19;;;;;;;39.40;27.40;;;2.70;99.90;;;;;;4971622;28;20027;-76
2022/03/09 06:54:45;;;;;;;37.17;26.00;;;2.80;99.90;;;;;;4968980;28;20039;-76
2022/03/09 06:57:11;;;;;;;40.40;27.17;;;2.80;99.90;;;;;;4961520;28;20085;-76
2022/03/09 06:59:37;;;;;;;37.92;25.98;;;2.90;99.90;;;;;;4957744;28;20027;-75
2022/03/09 07:02:04;;;;;;;36.45;25.98;;;3.10;99.90;;;;;;4954594;28;20038;-75
2022/03/09 07:04:30;;;;;;;43.50;26.40;;;3.10;99.90;;;;;;4972722;28;20465;-76
2022/03/09 07:06:57;;;;;;;42.53;28.00;;;2.90;99.90;;;;;;4973540;28;20081;-76
2022/03/09 07:09:23;;;;;;;44.33;26.58;;;2.80;99.90;;;;;;4972016;28;20034;-77
2022/03/09 07:11:50;;;;;;;43.80;25.30;;;2.70;99.90;;;;;;4987060;28;20468;-76
2022/03/09 07:14:16;;;;;;;38.22;25.17;;;2.60;99.90;;;;;;4976474;28;20038;-76
2022/03/09 07:16:42;;;;;;;43.50;25.90;;;2.50;99.90;;;;;;4975470;28;20031;-76
2022/03/09 07:19:08;;;;;;;35.92;24.90;;;2.50;99.90;;;;;;4973581;28;20035;-76
2022/03/09 07:21:34;;;;;;;38.35;24.77;;;2.50;99.90;;;;;;4973424;28;20027;-76
2022/03/09 07:24:00;;;;;;;40.20;25.42;;;2.40;99.90;;;;;;4973504;28;20026;-77
2022/03/09 07:26:26;;;;;;;40.17;25.05;;;2.60;99.90;;;;;;4971794;28;20022;-75
2022/03/09 07:28:53;;;;;;;39.92;27.77;;;2.70;99.90;;;;;;4973214;28;20038;-74
2022/03/09 07:31:19;;;;;;;42.22;27.10;;;2.80;99.90;;;;;;4972729;28;20513;-76
2022/03/09 07:33:45;;;;;;;44.47;27.67;;;2.90;99.90;;;;;;4971755;28;20503;-76
2022/03/09 07:36:11;;;;;;;44.55;26.88;;;3.00;99.90;;;;;;4974240;28;20125;-76
2022/03/09 07:38:38;;;;;;;42.65;26.10;;;3.00;99.90;;;;;;4972846;28;20038;-76
2022/03/09 07:41:05;;;;;;;44.50;26.88;;;3.00;99.90;;;;;;4971689;28;20030;-77
2022/03/09 07:43:30;;;;;;;39.92;25.08;;;3.10;99.90;;;;;;4970839;28;20080;-74
2022/03/09 07:45:57;;;;;;;34.20;22.98;;;3.20;99.90;;;;;;4969049;28;20229;-75
2022/03/09 07:48:23;;;;;;;37.88;22.55;;;3.20;99.90;;;;;;4972136;28;20392;-77
2022/03/09 07:50:49;;;;;;;40.80;24.95;;;3.30;99.90;;;;;;4971907;28;20037;-76
2022/03/09 07:53:15;;;;;;;41.58;24.10;;;3.30;99.90;;;;;;4972191;28;20034;-76
2022/03/09 07:55:41;;;;;;;38.70;24.60;;;3.20;99.90;;;;;;4971379;28;20046;-76
2022/03/09 07:58:07;;;;;;;41.92;24.65;;;3.20;99.90;;;;;;4971892;28;20046;-75
2022/03/09 08:00:33;;;;;;;37.88;22.50;;;3.20;99.90;;;;;;4972589;28;20023;-74
2022/03/09 08:02:58;;;;;;;39.83;25.98;;;3.20;99.90;;;;;;4972624;28;20028;-76
2022/03/09 08:05:25;;;;;;;37.20;23.50;;;3.20;99.90;;;;;;4972889;28;20033;-75
2022/03/09 08:07:51;;;;;;;38.65;22.38;;;3.50;99.90;;;;;;4971448;28;20561;-76
2022/03/09 08:10:19;;;;;;;42.80;25.10;;;3.70;99.90;;;;;;4985949;28;20043;-76
2022/03/09 08:12:46;;;;;;;34.83;22.85;;;3.60;99.90;;;;;;4973648;28;20026;-76
2022/03/09 08:15:12;;;;;;;41.95;23.40;;;3.50;99.90;;;;;;4978421;28;20145;-77
2022/03/09 08:17:38;;;;;;;39.05;25.23;;;3.40;99.90;;;;;;4972657;28;20031;-76
2022/03/09 08:20:05;;;;;;;41.80;25.88;;;3.30;99.90;;;;;;4973388;28;20465;-76
2022/03/09 08:22:31;;;;;;;44.95;30.17;;;3.30;99.90;;;;;;4972619;28;20023;-75
2022/03/09 08:24:57;;;;;;;42.95;27.38;;;3.20;99.90;;;;;;4972419;28;20089;-75
2022/03/09 08:27:22;;;;;;;36.65;22.75;;;3.20;99.90;;;;;;4972497;28;20448;-75
2022/03/09 08:29:50;;;;;;;44.88;24.92;;;3.20;99.90;;;;;;4972047;28;20073;-75
2022/03/09 08:32:20;;;;;;;36.97;22.50;;;3.40;99.90;;;;;;4972208;28;20116;-76
2022/03/09 08:34:46;;;;;;;31.25;20.40;;;3.50;99.90;;;;;;4972911;28;20027;-76
2022/03/09 08:37:13;;;;;;;33.28;20.60;;;3.50;99.90;;;;;;4972219;28;20070;-77
2022/03/09 08:39:39;;;;;;;33.90;18.23;;;3.60;99.90;;;;;;4970710;28;20023;-76
2022/03/09 08:42:05;;;;;;;35.58;18.20;;;3.70;99.90;;;;;;4970855;28;20027;-76
2022/03/09 08:44:31;;;;;;;29.35;18.75;;;3.70;99.90;;;;;;4972875;28;20029;-75
2022/03/09 08:46:57;;;;;;;28.77;17.60;;;3.70;99.90;;;;;;4971498;28;20082;-75
2022/03/09 08:49:23;;;;;;;32.30;19.67;;;3.70;99.90;;;;;;4975043;28;20027;-76
2022/03/09 08:51:49;;;;;;;30.60;17.90;;;3.70;99.90;;;;;;4975981;28;20058;-76
2022/03/09 08:54:15;;;;;;;31.75;16.42;;;3.70;99.90;;;;;;4976143;28;20065;-76
2022/03/09 08:56:41;;;;;;;25.98;13.52;;;3.80;99.90;;;;;;4978650;28;20061;-76
2022/03/09 08:59:07;;;;;;;24.70;15.00;;;3.90;99.90;;;;;;4990736;28;20090;-76
2022/03/09 09:01:33;;;;;;;24.40;9.43;;;3.90;99.90;;;;;;4975976;28;20351;-76
2022/03/09 09:03:59;;;;;;;21.33;11.60;;;3.80;99.00;;;;;;4976248;28;20511;-76
2022/03/09 09:06:25;;;;;;;23.42;13.63;;;3.80;99.90;;;;;;4976203;28;20476;-76
2022/03/09 09:08:51;;;;;;;25.05;11.95;;;3.80;99.90;;;;;;4976172;28;20027;-76
2022/03/09 09:11:17;;;;;;;19.08;10.43;;;3.90;99.90;;;;;;4975728;28;20105;-73
2022/03/09 09:13:44;;;;;;;20.75;12.13;;;3.80;97.80;;;;;;4975834;28;20339;-76
2022/03/09 09:16:10;;;;;;;17.98;10.43;;;3.80;99.00;;;;;;4975188;28;20034;-76
2022/03/09 09:18:36;;;;;;;24.05;11.38;;;3.70;99.90;;;;;;4979467;28;20149;-76
2022/03/09 09:21:03;;;;;;;19.33;11.05;;;3.80;99.90;;;;;;4975716;28;20109;-75
2022/03/09 09:23:29;;;;;;;21.38;11.73;;;3.90;99.90;;;;;;4975553;28;20034;-76
2022/03/09 09:25:55;;;;;;;20.02;10.20;;;3.90;99.90;;;;;;4974278;28;20034;-75
2022/03/09 09:28:21;;;;;;;19.25;10.80;;;3.80;99.90;;;;;;4977590;28;20027;-75
2022/03/09 09:30:48;;;;;;;17.83;10.38;;;3.80;99.90;;;;;;4975342;28;20552;-76
2022/03/09 09:33:14;;;;;;;21.38;10.95;;;3.60;99.90;;;;;;4975638;28;20022;-75
2022/03/09 09:35:40;;;;;;;20.02;12.18;;;3.50;99.90;;;;;;4978738;28;20448;-76
2022/03/09 09:38:08;;;;;;;25.08;14.70;;;3.40;99.90;;;;;;4976106;28;20027;-74
2022/03/09 09:40:44;;;;;;;22.85;11.77;;;3.50;99.90;;;;;;4979348;28;20035;-75
2022/03/09 09:43:16;;;;;;;19.88;10.63;;;3.60;99.90;;;;;;4981319;28;20034;-75
2022/03/09 09:45:42;;;;;;;19.58;10.50;;;3.50;99.90;;;;;;4974193;28;20110;-76
2022/03/09 09:48:09;;;;;;;20.67;10.23;;;3.50;99.90;;;;;;4975271;28;20384;-73
2022/03/09 09:50:37;;;;;;;16.05;8.98;;;3.70;99.90;;;;;;4973972;28;20038;-73
2022/03/09 09:53:07;;;;;;;23.67;12.65;;;3.70;99.90;;;;;;4974953;28;20519;-75
2022/03/09 09:55:34;;;;;;;24.13;13.52;;;3.60;99.90;;;;;;4974642;28;20034;-76
2022/03/09 09:58:01;;;;;;;26.42;14.15;;;3.50;99.90;;;;;;4975128;28;20163;-74
2022/03/09 10:00:27;;;;;;;24.17;13.82;;;3.70;99.90;;;;;;4973283;28;20543;-74
2022/03/09 10:02:53;;;;;;;27.25;14.23;;;3.60;99.90;;;;;;4975008;28;20110;-76
2022/03/09 10:05:20;;;;;;;22.23;12.25;;;3.70;99.90;;;;;;4974868;28;20428;-75
2022/03/09 10:08:13;;;;;;;26.88;11.82;;;3.70;99.90;;;;;;4957431;28;20077;-75
2022/03/09 10:10:43;;;;;;;21.35;12.18;;;3.70;99.90;;;;;;4975171;28;20066;-75
2022/03/09 10:13:12;;;;;;;21.67;11.65;;;3.70;99.90;;;;;;4974631;28;20093;-75
2022/03/09 10:15:39;;;;;;;28.88;15.43;;;3.90;99.90;;;;;;4974200;28;20045;-75
2022/03/09 10:18:19;;;;;;;20.88;12.18;;;4.10;99.90;;;;;;4974104;28;20099;-75
2022/03/09 10:20:48;;;;;;;18.50;9.85;;;4.10;99.90;;;;;;4974509;28;20334;-76
2022/03/09 10:23:16;;;;;;;20.52;10.93;;;4.00;99.90;;;;;;4980776;28;20465;-75
2022/03/09 10:25:42;;;;;;;18.65;10.70;;;3.90;99.90;;;;;;4974559;28;20035;-75
2022/03/09 10:28:11;;;;;;;21.35;11.30;;;4.00;99.90;;;;;;4982585;28;20026;-76
2022/03/09 10:30:39;;;;;;;18.98;10.82;;;3.90;99.90;;;;;;4974558;28;20062;-74
2022/03/09 10:33:08;;;;;;;20.20;11.15;;;3.80;99.90;;;;;;4974138;28;20019;-75
2022/03/09 10:35:34;;;;;;;17.25;11.00;;;3.90;99.90;;;;;;4972670;28;20085;-75
2022/03/09 10:38:05;;;;;;;18.85;11.32;;;3.80;99.90;;;;;;4972637;28;20018;-75
2022/03/09 10:40:39;;;;;;;22.08;12.60;;;3.80;99.90;;;;;;4985978;28;20094;-75
2022/03/09 10:43:23;;;;;;;24.05;12.20;;;3.80;99.90;;;;;;4975184;28;20030;-75
2022/03/09 10:46:08;;;;;;;22.00;12.48;;;3.70;99.90;;;;;;4984311;28;20054;-76
2022/03/09 10:48:52;;;;;;;21.45;12.38;;;3.60;99.90;;;;;;4975482;28;20027;-75
2022/03/09 10:51:41;;;;;;;21.77;11.48;;;3.50;99.90;;;;;;4974958;28;20037;-75
2022/03/09 10:54:24;;;;;;;28.70;16.73;;;3.60;99.90;;;;;;4974048;28;20062;-75
2022/03/09 10:57:02;;;;;;;32.88;18.58;;;3.60;99.90;;;;;;4973834;28;20500;-74
2022/03/09 10:59:28;;;;;;;36.10;20.40;;;3.50;99.90;;;;;;4973984;28;20030;-75
2022/03/09 11:02:08;;;;;;;31.30;17.42;;;3.60;99.90;;;;;;4974009;28;20023;-74
2022/03/09 11:04:34;;;;;;;25.73;14.38;;;3.60;99.90;;;;;;4955122;28;20035;-76
2022/03/09 11:07:01;;;;;;;24.55;13.50;;;3.60;99.90;;;;;;4953952;28;20032;-74
2022/03/09 11:09:27;;;;;;;22.30;12.35;;;3.50;99.90;;;;;;4954384;28;20106;-71
2022/03/09 11:11:53;;;;;;;34.55;20.45;;;3.50;99.90;;;;;;4968883;28;20038;-77
2022/03/09 11:14:20;;;;;;;34.97;16.85;;;3.60;99.90;;;;;;4955156;28;20027;-74
2022/03/09 11:16:48;;;;;;;21.58;11.30;;;3.60;99.90;;;;;;4954260;28;20039;-74
2022/03/09 11:19:14;;;;;;;20.00;11.32;;;3.50;99.90;;;;;;4954203;28;20382;-76
2022/03/09 11:21:41;;;;;;;18.33;10.52;;;3.50;99.90;;;;;;4953674;28;20470;-77
2022/03/09 11:24:10;;;;;;;21.83;10.05;;;3.60;99.90;;;;;;4954707;28;20393;-75
2022/03/09 11:26:46;;;;;;;21.52;12.73;;;3.60;99.90;;;;;;4954260;28;20054;-74
2022/03/09 11:29:13;;;;;;;19.00;10.70;;;3.70;99.90;;;;;;4954028;28;20106;-75
2022/03/09 11:31:51;;;;;;;21.73;13.10;;;3.70;99.90;;;;;;4968772;28;20030;-74
2022/03/09 11:34:43;;;;;;;17.80;10.48;;;3.60;99.90;;;;;;4960631;28;20093;-75
2022/03/09 11:37:14;;;;;;;24.17;11.88;;;3.70;99.90;;;;;;4953517;28;20043;-75
2022/03/09 11:39:45;;;;;;;20.10;11.07;;;3.70;99.90;;;;;;4953547;28;20425;-75
2022/03/09 11:42:31;;;;;;;16.55;9.07;;;3.90;99.90;;;;;;4969033;28;20299;-76
2022/03/09 11:45:29;;;;;;;22.60;11.77;;;3.80;99.90;;;;;;4963689;28;20019;-72
2022/03/09 11:48:14;;;;;;;23.30;11.65;;;3.70;99.90;;;;;;4958184;28;20040;-75
2022/03/09 11:50:46;;;;;;;18.90;10.27;;;3.60;99.90;;;;;;4953372;28;20039;-74
2022/03/09 11:53:14;;;;;;;22.52;12.38;;;3.60;99.90;;;;;;4953280;28;20025;-76
2022/03/09 11:55:41;;;;;;;24.33;12.43;;;3.60;99.90;;;;;;4968129;28;20631;-76
2022/03/09 11:58:08;;;;;;;28.55;15.18;;;3.70;99.90;;;;;;4959963;28;20031;-75
2022/03/09 12:00:58;;;;;;;26.73;14.93;;;3.80;99.90;;;;;;4953623;28;20031;-75
2022/03/09 12:03:42;;;;;;;25.83;14.40;;;3.70;99.90;;;;;;4975954;28;20042;-74
2022/03/09 12:06:53;;;;;;;23.50;12.73;;;3.80;99.90;;;;;;4965596;28;20358;-75
2022/03/09 12:09:51;;;;;;;20.60;12.27;;;3.90;99.90;;;;;;4940264;29;20050;-76
2022/03/09 12:12:17;;;;;;;20.85;11.15;;;4.00;99.90;;;;;;4960083;28;20110;-75
2022/03/09 12:15:04;;;;;;;21.08;12.23;;;4.00;99.90;;;;;;4934961;29;20031;-75
2022/03/09 12:17:42;;;;;;;21.05;11.65;;;4.10;99.90;;;;;;4959161;28;20042;-76
2022/03/09 12:20:29;;;;;;;20.17;11.55;;;4.10;99.90;;;;;;4946668;29;20396;-75
2022/03/09 12:23:01;;;;;;;21.33;10.98;;;4.00;99.90;;;;;;4958085;28;20090;-75
2022/03/09 12:25:41;;;;;;;22.55;12.45;;;4.00;99.90;;;;;;4935050;29;20035;-74
2022/03/09 12:31:11;;;;;;;19.35;11.18;;;4.20;99.90;;;;;;4936313;28;20035;-76
2022/03/09 12:33:42;;;;;;;21.58;11.23;;;4.20;99.90;;;;;;4950867;28;20067;-75
2022/03/09 12:36:24;;;;;;;22.95;12.20;;;4.20;99.90;;;;;;4950722;28;20051;-76
2022/03/09 12:38:55;;;;;;;24.38;13.23;;;4.30;99.90;;;;;;4953747;28;20043;-75
2022/03/09 12:41:36;;;;;;;24.25;13.75;;;4.30;99.90;;;;;;4958784;28;20050;-74
2022/03/09 12:44:08;;;;;;;24.20;13.18;;;4.30;99.90;;;;;;4950797;29;20031;-75
2022/03/09 12:46:37;;;;;;;25.27;12.93;;;4.50;99.90;;;;;;4952468;28;20061;-74